Time;durP1;ratioP1;P1;durP2;ratioP2;P2;SDS_P1;SDS_P2;PMS_P1;PMS_P2;Temp;Humidity;BMP_temperature;BMP_pressure;BME280_temperature;BME280_humidity;BME280_pressure;Samples;Min_cycle;Max_cycle;Signal;HPM_P1;HPM_P2
2023/07/07 00:54:17;;;;;;;3.92;3.55;;;23.00;87.60;;;;;;3507255;28;16016417;-57
2023/07/07 00:57:44;;;;;;;3.47;3.17;;;23.00;87.80;;;;;;5109827;28;20118;-57
2023/07/07 01:34:20;;;;;;;3.35;3.05;;;22.70;88.00;;;;;;5057520;28;20027;-56
2023/07/07 01:38:04;;;;;;;4.35;3.80;;;22.70;88.40;;;;;;5030654;28;20048;-56
2023/07/07 04:03:07;;;;;;;4.10;3.70;;;27.40;84.10;;;;;;4826404;28;20096;-56
2023/07/07 05:23:55;;;;;;;3.83;3.00;;;37.10;54.80;;;;;;4699394;28;20086;-54
2023/07/07 06:35:17;;;;;;;6.75;4.65;;;26.70;73.90;;;;;;5037333;28;20038;-85
2023/07/07 06:37:43;;;;;;;4.95;4.30;;;26.60;74.30;;;;;;5009711;28;20065;-85
2023/07/07 06:40:10;;;;;;;4.90;4.15;;;26.50;74.60;;;;;;5034968;28;20025;-86
2023/07/07 06:42:35;;;;;;;4.90;4.28;;;26.60;75.00;;;;;;5022805;28;20053;-80
2023/07/07 06:45:01;;;;;;;4.80;4.38;;;26.60;75.30;;;;;;5031552;28;20461;-88
2023/07/07 06:47:27;;;;;;;5.03;4.53;;;26.70;75.40;;;;;;5034416;28;20068;-89
2023/07/07 06:49:52;;;;;;;5.00;4.25;;;26.80;75.50;;;;;;5014037;28;20057;-88
2023/07/07 06:52:18;;;;;;;5.85;4.55;;;26.90;75.60;;;;;;5013185;28;20393;-88
2023/07/07 06:54:44;;;;;;;4.50;3.97;;;27.00;75.40;;;;;;5014658;28;20076;-89
2023/07/07 06:57:10;;;;;;;4.78;4.10;;;27.00;75.20;;;;;;5009718;28;20392;-92
2023/07/07 06:59:35;;;;;;;4.75;4.35;;;27.00;75.30;;;;;;5008401;28;20049;-89
2023/07/07 07:02:01;;;;;;;8.02;4.57;;;27.10;75.70;;;;;;5028997;28;20057;-88
2023/07/07 07:04:28;;;;;;;4.78;4.28;;;27.10;75.80;;;;;;5055416;23;20058;-90
2023/07/07 07:06:54;;;;;;;4.78;4.28;;;27.10;75.90;;;;;;4995197;28;20034;-89
2023/07/07 07:09:20;;;;;;;4.70;3.95;;;27.20;75.90;;;;;;4997597;28;20018;-87
2023/07/07 07:11:49;;;;;;;35.67;13.02;;;27.30;75.70;;;;;;4999826;28;20031;-89
2023/07/07 07:50:31;;;;;;;4.38;3.67;;;27.60;74.80;;;;;;5016995;26;20098;-81
2023/07/07 07:52:57;;;;;;;4.20;3.80;;;27.70;74.90;;;;;;5001846;28;20026;-81
2023/07/07 07:55:22;;;;;;;3.78;3.47;;;27.70;74.60;;;;;;5016438;28;20026;-82
2023/07/07 07:57:48;;;;;;;4.28;3.80;;;27.80;74.80;;;;;;5016229;28;20038;-81
2023/07/07 08:00:15;;;;;;;4.50;4.10;;;27.80;74.80;;;;;;4995824;28;20026;-81
2023/07/07 08:02:41;;;;;;;4.10;3.70;;;27.90;74.30;;;;;;5018041;28;20097;-81
2023/07/07 08:05:07;;;;;;;6.13;4.32;;;27.90;73.90;;;;;;5009698;28;21541;-81
2023/07/07 08:07:33;;;;;;;3.92;3.58;;;28.00;73.80;;;;;;5020816;28;20038;-82
2023/07/07 08:09:59;;;;;;;6.05;4.28;;;28.00;73.80;;;;;;4999877;28;20037;-86
2023/07/07 08:12:24;;;;;;;4.88;3.95;;;28.10;73.40;;;;;;5006800;28;20588;-86
2023/07/07 08:14:50;;;;;;;3.72;3.38;;;28.10;73.30;;;;;;4982215;28;20025;-84
2023/07/07 08:17:17;;;;;;;4.10;3.70;;;28.10;73.40;;;;;;4988815;28;20899;-87
2023/07/07 08:19:44;;;;;;;5.22;3.83;;;28.10;73.50;;;;;;5014952;28;20117;-86
2023/07/07 08:22:19;;;;;;;4.05;3.60;;;28.10;73.50;;;;;;5006739;28;20029;-86
2023/07/07 08:24:51;;;;;;;3.75;3.42;;;28.10;73.60;;;;;;5009674;28;20473;-86
2023/07/07 08:27:18;;;;;;;3.90;3.50;;;28.10;73.40;;;;;;5007470;28;20033;-87
2023/07/07 08:29:44;;;;;;;4.88;3.90;;;28.10;73.30;;;;;;5010772;28;20037;-86
2023/07/07 08:32:13;;;;;;;4.55;3.70;;;28.10;73.30;;;;;;5005635;28;20034;-86
2023/07/07 08:34:40;;;;;;;3.40;3.10;;;28.10;73.00;;;;;;4990070;28;20034;-86
2023/07/07 08:37:06;;;;;;;3.55;3.20;;;28.10;73.00;;;;;;4991090;28;20037;-86
2023/07/07 08:39:33;;;;;;;4.97;4.00;;;28.10;73.10;;;;;;4993464;28;20042;-86
2023/07/07 08:42:05;;;;;;;4.03;3.35;;;28.00;73.00;;;;;;5083880;22;20045;-86
2023/07/07 08:44:34;;;;;;;4.13;3.70;;;28.00;73.10;;;;;;5057773;28;20021;-86
2023/07/07 08:47:08;;;;;;;4.00;3.60;;;28.00;73.10;;;;;;5027910;28;20041;-83
2023/07/07 08:49:39;;;;;;;5.45;3.83;;;28.00;73.10;;;;;;5042343;28;20021;-82
2023/07/07 08:52:28;;;;;;;4.43;3.67;;;28.00;73.10;;;;;;5027497;28;20040;-83
2023/07/07 08:55:20;;;;;;;3.90;3.50;;;28.00;72.60;;;;;;5026621;28;20496;-83
2023/07/07 08:58:19;;;;;;;3.63;3.33;;;28.00;72.70;;;;;;5041654;28;20041;-81
2023/07/07 09:00:49;;;;;;;4.03;3.65;;;27.90;72.50;;;;;;5007910;28;20114;-81
2023/07/07 09:03:30;;;;;;;4.90;4.22;;;27.90;72.70;;;;;;5044409;28;20029;-83
2023/07/07 09:06:19;;;;;;;3.83;3.42;;;27.90;72.60;;;;;;5089909;23;20041;-49
2023/07/07 09:08:59;;;;;;;4.28;3.88;;;27.90;72.70;;;;;;5058818;28;20018;-53
2023/07/07 09:12:07;;;;;;;4.28;3.88;;;27.90;72.60;;;;;;5062501;28;20005;-50
2023/07/07 09:14:35;;;;;;;4.03;3.63;;;27.90;72.40;;;;;;5063644;28;20041;-54
2023/07/07 09:43:49;;;;;;;5.20;4.25;;;27.80;75.60;;;;;;1354017;23;21540;31
2023/07/07 09:46:31;;;;;;;4.45;4.05;;;27.80;75.60;;;;;;4949138;29;20111;-88
2023/07/07 09:49:21;;;;;;;4.70;4.30;;;27.80;75.90;;;;;;4951572;29;20142;-89
2023/07/07 09:51:56;;;;;;;5.23;4.73;;;27.70;75.90;;;;;;4950924;29;20034;-90
2023/07/07 09:54:23;;;;;;;4.85;4.35;;;27.70;75.90;;;;;;4946033;29;20027;-90
2023/07/07 09:56:56;;;;;;;4.75;4.20;;;27.80;76.00;;;;;;4953256;28;20159;-90
2023/07/07 09:59:27;;;;;;;4.80;4.30;;;27.80;76.00;;;;;;4940001;29;20027;-90
2023/07/07 10:01:55;;;;;;;5.22;4.43;;;27.80;76.00;;;;;;4920999;29;20057;-87
2023/07/07 10:04:24;;;;;;;4.63;4.10;;;27.80;75.90;;;;;;4932546;29;20475;-89
2023/07/07 10:07:08;;;;;;;5.03;4.53;;;27.80;75.90;;;;;;4935476;29;20428;-89
2023/07/07 10:09:35;;;;;;;4.68;4.05;;;27.80;75.90;;;;;;4942521;28;20062;-89
2023/07/07 10:12:05;;;;;;;4.32;3.92;;;27.80;76.10;;;;;;4958118;28;20030;-85
2023/07/07 10:14:33;;;;;;;4.82;4.13;;;27.80;76.20;;;;;;4972024;28;20030;-91
2023/07/07 10:17:08;;;;;;;4.93;4.50;;;27.80;76.30;;;;;;4937580;29;20037;-86
2023/07/07 10:19:41;;;;;;;4.63;4.13;;;27.90;76.50;;;;;;4955149;28;20495;-89
2023/07/07 10:22:11;;;;;;;4.70;4.30;;;27.90;76.30;;;;;;4959612;28;20034;-89
2023/07/07 10:27:31;;;;;;;6.60;4.45;;;27.90;76.20;;;;;;4954966;29;20054;-89
2023/07/07 10:30:03;;;;;;;4.80;4.15;;;27.90;76.00;;;;;;4940061;29;20035;-89
2023/07/07 10:32:29;;;;;;;5.15;4.63;;;27.90;75.90;;;;;;4951024;28;21043;-88
2023/07/07 10:34:58;;;;;;;5.25;4.50;;;27.90;75.90;;;;;;4931407;29;20563;-87
2023/07/07 10:37:30;;;;;;;5.00;4.50;;;27.90;75.90;;;;;;4946332;28;20035;-89
2023/07/07 10:39:59;;;;;;;4.70;3.90;;;27.90;76.00;;;;;;4933791;28;20086;-88
2023/07/07 10:42:26;;;;;;;5.05;4.10;;;27.80;76.10;;;;;;4946673;28;20038;-85
2023/07/07 10:44:54;;;;;;;4.50;4.10;;;27.80;76.60;;;;;;4967793;28;20058;-88
2023/07/07 10:47:24;;;;;;;4.22;3.83;;;27.80;77.00;;;;;;4974494;28;20062;-89
2023/07/07 10:49:50;;;;;;;5.55;4.40;;;27.80;77.10;;;;;;4974751;28;20037;-88
2023/07/07 10:52:36;;;;;;;5.60;4.60;;;27.70;77.40;;;;;;4978815;28;20026;-89
2023/07/07 10:55:25;;;;;;;6.88;4.60;;;27.70;77.80;;;;;;4976863;28;20030;-88
2023/07/07 10:58:16;;;;;;;5.32;4.72;;;27.70;78.60;;;;;;4976351;28;20672;-88
2023/07/07 11:01:08;;;;;;;8.48;4.63;;;27.60;79.20;;;;;;4992455;28;20054;-86
2023/07/07 11:04:11;;;;;;;6.65;4.78;;;27.50;79.80;;;;;;4988763;28;20035;-86
2023/07/07 11:06:59;;;;;;;4.50;4.10;;;27.40;80.30;;;;;;4974156;28;20040;-87
2023/07/07 11:09:24;;;;;;;4.80;4.03;;;27.30;80.40;;;;;;4974768;28;20049;-87
2023/07/07 11:12:09;;;;;;;4.40;4.00;;;27.20;80.60;;;;;;4995835;28;20018;-86
2023/07/07 11:15:01;;;;;;;5.13;4.30;;;27.20;80.90;;;;;;4972045;28;20043;-87
2023/07/07 11:17:58;;;;;;;4.93;3.95;;;27.20;81.50;;;;;;4972762;28;20043;-86
2023/07/07 11:20:32;;;;;;;4.22;3.83;;;27.20;81.90;;;;;;4951589;28;20066;-86
2023/07/07 11:23:20;;;;;;;5.53;4.55;;;27.20;82.60;;;;;;4949219;29;20030;-83
2023/07/07 11:26:09;;;;;;;4.82;4.32;;;27.20;83.30;;;;;;4948251;29;20037;-84
2023/07/07 11:28:46;;;;;;;4.82;4.32;;;27.20;83.50;;;;;;4949077;28;20028;-83
2023/07/07 11:31:30;;;;;;;5.97;4.60;;;27.20;84.20;;;;;;4967634;28;20032;-83
2023/07/07 11:34:28;;;;;;;5.93;4.25;;;27.30;83.80;;;;;;4972763;28;20038;-85
2023/07/07 11:37:00;;;;;;;4.85;4.35;;;27.30;83.30;;;;;;4946144;29;20787;-84
2023/07/07 11:40:06;;;;;;;4.80;4.30;;;27.30;83.30;;;;;;4954150;29;20031;-82
2023/07/07 11:43:00;;;;;;;5.05;4.28;;;27.30;83.00;;;;;;4951833;28;20028;-82
2023/07/07 11:45:57;;;;;;;4.88;4.35;;;27.30;83.00;;;;;;4949944;29;20127;-82
2023/07/07 11:48:50;;;;;;;4.90;4.13;;;27.30;83.00;;;;;;4966982;28;20028;-82
2023/07/07 11:51:22;;;;;;;5.32;4.68;;;27.30;83.00;;;;;;4962041;28;20031;-83
2023/07/07 11:54:11;;;;;;;4.63;4.20;;;27.30;83.20;;;;;;4958436;28;20031;-82
2023/07/07 11:56:48;;;;;;;5.18;4.68;;;27.30;83.00;;;;;;4949114;28;20066;-84
2023/07/07 11:59:27;;;;;;;5.13;4.28;;;27.20;83.10;;;;;;4945527;28;20352;-84
2023/07/07 12:02:21;;;;;;;5.80;4.75;;;27.20;83.10;;;;;;4944664;29;20045;-87
2023/07/07 12:04:57;;;;;;;4.85;4.20;;;27.20;83.10;;;;;;4944276;28;20034;-87
2023/07/07 12:07:43;;;;;;;5.78;4.80;;;27.20;83.40;;;;;;4945252;28;20447;-87
2023/07/07 12:10:38;;;;;;;5.93;5.00;;;27.10;83.40;;;;;;4947407;29;20498;-87
2023/07/07 12:13:13;;;;;;;5.63;5.10;;;27.10;83.40;;;;;;4946698;28;20035;-87
2023/07/07 12:15:47;;;;;;;5.20;4.70;;;27.00;83.60;;;;;;4945102;29;20086;-85
2023/07/07 12:18:35;;;;;;;5.00;4.50;;;27.00;83.80;;;;;;4941254;28;20043;-86
2023/07/07 12:21:11;;;;;;;5.45;4.93;;;27.00;83.90;;;;;;4956869;28;20038;-86
2023/07/07 12:23:41;;;;;;;4.78;4.25;;;26.90;84.10;;;;;;4943761;28;20039;-85
2023/07/07 12:26:22;;;;;;;5.07;4.25;;;26.90;84.10;;;;;;4940149;29;20043;-85
2023/07/07 12:28:53;;;;;;;;;;;26.90;84.40;;;;;;4944014;28;20090;-85
2023/07/07 12:31:19;;;;;;;;;;;26.80;84.10;;;;;;4944033;28;19921;-86
2023/07/07 12:33:47;;;;;;;6.07;3.92;;;26.70;84.20;;;;;;4952609;28;19971;-85
2023/07/07 12:36:14;;;;;;;4.32;3.92;;;26.70;84.50;;;;;;4948903;29;20078;-84
2023/07/07 12:38:41;;;;;;;5.32;4.57;;;26.70;85.10;;;;;;4941627;29;20135;-85
2023/07/07 12:41:11;;;;;;;5.25;4.75;;;26.70;85.50;;;;;;4948882;28;20023;-84
2023/07/07 12:43:49;;;;;;;5.35;4.72;;;26.60;85.70;;;;;;4946372;28;20046;-87
2023/07/07 12:46:23;;;;;;;5.43;4.93;;;26.60;85.90;;;;;;4945198;29;20035;-84
2023/07/07 12:48:52;;;;;;;5.78;4.78;;;26.50;86.00;;;;;;4947198;28;20034;-85
2023/07/07 12:51:19;;;;;;;7.65;6.00;;;26.40;86.30;;;;;;4952162;28;20016;-85
2023/07/07 12:53:51;;;;;;;5.20;4.70;;;26.40;86.80;;;;;;4952080;28;20027;-86
2023/07/07 12:56:29;;;;;;;4.88;4.47;;;26.30;87.10;;;;;;4948348;29;20031;-87
2023/07/07 13:02:30;;;;;;;4.82;4.40;;;26.10;87.60;;;;;;4942203;29;20044;-86
2023/07/07 13:05:23;;;;;;;5.15;4.65;;;26.00;88.20;;;;;;4947064;29;20039;-86
2023/07/07 13:08:01;;;;;;;4.82;4.32;;;26.00;88.20;;;;;;4971873;28;20066;-86
2023/07/07 13:10:42;;;;;;;5.45;4.72;;;25.90;88.40;;;;;;4955567;29;20119;-84
2023/07/07 13:13:32;;;;;;;6.80;4.85;;;25.90;89.00;;;;;;4957357;28;20043;-86
2023/07/07 13:15:58;;;;;;;5.25;4.75;;;25.80;89.20;;;;;;4954843;28;20039;-85
2023/07/07 13:18:36;;;;;;;5.32;4.82;;;25.80;89.80;;;;;;4951465;28;20395;-84
2023/07/07 13:21:08;;;;;;;5.25;4.75;;;25.80;90.10;;;;;;4966120;28;20468;-85
2023/07/07 13:23:45;;;;;;;5.00;4.50;;;25.80;90.20;;;;;;4947198;28;20081;-85
2023/07/07 13:26:30;;;;;;;6.15;4.57;;;25.80;90.20;;;;;;4943958;28;20042;-85
2023/07/07 13:29:43;;;;;;;5.25;4.75;;;25.70;90.20;;;;;;4965548;28;20027;-88
2023/07/07 13:33:07;;;;;;;5.55;4.40;;;25.70;89.70;;;;;;4951391;28;20046;-84
2023/07/07 13:36:01;;;;;;;5.15;4.65;;;25.60;88.40;;;;;;4939542;28;20054;-86
2023/07/07 13:45:07;;;;;;;3.80;3.40;;;25.60;85.30;;;;;;4952115;28;20058;-85
2023/07/07 13:47:47;;;;;;;3.80;3.40;;;25.60;84.40;;;;;;4966647;28;20022;-85
2023/07/07 13:50:33;;;;;;;3.90;3.53;;;25.60;83.80;;;;;;4945988;28;20109;-84
2023/07/07 13:56:02;;;;;;;4.05;3.67;;;25.60;84.20;;;;;;4929932;28;20038;-86
2023/07/07 13:58:54;;;;;;;4.20;3.80;;;25.60;84.30;;;;;;4949106;28;20027;-85
2023/07/07 14:01:27;;;;;;;5.07;4.00;;;25.60;84.20;;;;;;4949299;28;20066;-85
2023/07/07 14:04:43;;;;;;;5.97;4.95;;;25.60;85.00;;;;;;4946205;28;20117;-85
2023/07/07 14:07:43;;;;;;;;;;;;;;;;;;;;;
2023/07/07 14:10:38;;;;;;;4.40;4.00;;;25.50;86.30;;;;;;4969955;28;20027;-84
2023/07/07 14:16:41;;;;;;;5.22;4.72;;;25.50;87.60;;;;;;4960841;28;20130;-85
2023/07/07 14:19:38;;;;;;;5.43;4.93;;;25.40;87.90;;;;;;4943650;28;20469;-86
2023/07/07 14:25:02;;;;;;;5.65;5.15;;;25.40;88.90;;;;;;4960564;28;20494;-86
2023/07/07 14:27:40;;;;;;;;;;;;;;;;;;;;;
2023/07/07 14:30:14;;;;;;;5.75;5.18;;;25.30;89.60;;;;;;4964796;28;20037;-85
2023/07/07 14:32:54;;;;;;;;;;;;;;;;;;;;;
2023/07/07 14:35:41;;;;;;;5.55;5.05;;;25.20;90.20;;;;;;4970476;28;20530;-85
2023/07/07 14:38:28;;;;;;;4.95;4.55;;;25.20;90.20;;;;;;4952993;28;20026;-85
2023/07/07 14:41:08;;;;;;;5.38;4.88;;;25.20;90.40;;;;;;4954649;28;20035;-85
2023/07/07 14:44:02;;;;;;;5.60;5.10;;;25.20;90.90;;;;;;4955743;28;20035;-85
2023/07/07 14:46:38;;;;;;;5.50;4.88;;;25.20;90.80;;;;;;4965662;28;20038;-85
2023/07/07 14:49:37;;;;;;;;;;;;;;;;;;;;;
2023/07/07 14:52:53;;;;;;;5.80;4.97;;;25.20;91.30;;;;;;4966690;28;20050;-85
2023/07/07 14:55:30;;;;;;;5.75;5.15;;;25.20;91.50;;;;;;4968224;28;20031;-85
2023/07/07 14:58:20;;;;;;;6.13;5.18;;;25.20;92.10;;;;;;4970378;28;20037;-85
2023/07/07 15:01:05;;;;;;;7.25;5.28;;;25.10;92.00;;;;;;4949250;28;20043;-85
2023/07/07 15:03:41;;;;;;;5.80;5.25;;;25.10;92.50;;;;;;4953913;28;20027;-85
2023/07/07 15:06:07;;;;;;;5.80;5.03;;;25.10;92.50;;;;;;4951652;28;20034;-85
2023/07/07 15:08:37;;;;;;;5.07;4.57;;;25.10;92.70;;;;;;4964041;28;20034;-85
2023/07/07 15:11:10;;;;;;;6.70;5.15;;;25.10;92.90;;;;;;4967106;28;20113;-83
2023/07/07 15:13:58;;;;;;;5.53;5.03;;;25.00;92.90;;;;;;4956175;28;20062;-91
2023/07/07 15:16:41;;;;;;;5.30;4.80;;;25.00;92.80;;;;;;4970824;28;20039;-90
2023/07/07 15:19:25;;;;;;;5.20;4.70;;;25.00;92.90;;;;;;4971135;28;20057;-90
2023/07/07 15:21:59;;;;;;;4.97;4.47;;;25.00;93.00;;;;;;4976137;28;20039;-88
2023/07/07 15:24:35;;;;;;;4.82;4.32;;;25.00;93.30;;;;;;4958970;28;20102;-92
2023/07/07 15:27:20;;;;;;;4.90;4.40;;;25.00;93.40;;;;;;4954570;28;20138;-91
2023/07/07 15:30:12;;;;;;;5.32;4.57;;;25.00;93.50;;;;;;4962369;28;20078;-88
2023/07/07 15:32:53;;;;;;;5.47;4.70;;;25.00;93.50;;;;;;4964604;28;20287;-89
2023/07/07 15:35:47;;;;;;;6.07;5.10;;;25.00;93.40;;;;;;4960196;28;20098;-92
2023/07/07 15:38:52;;;;;;;5.03;4.60;;;25.00;93.20;;;;;;4953188;28;20053;-92
2023/07/07 15:41:37;;;;;;;5.18;4.68;;;25.00;93.20;;;;;;4979332;28;20035;-91
2023/07/07 15:44:17;;;;;;;5.38;4.88;;;24.90;93.50;;;;;;4974334;28;20070;-90
2023/07/07 15:47:21;;;;;;;;;;;;;;;;;;;;;
2023/07/07 15:50:08;;;;;;;5.20;4.70;;;24.90;93.50;;;;;;4976835;28;20022;-89
2023/07/07 15:53:07;;;;;;;5.38;4.88;;;24.90;93.90;;;;;;4973707;28;20031;-87
2023/07/07 15:56:17;;;;;;;6.20;5.10;;;24.80;93.50;;;;;;4960091;28;20010;-89
2023/07/07 15:59:09;;;;;;;5.15;4.65;;;24.80;93.50;;;;;;4968277;28;20042;-90
2023/07/07 16:02:28;;;;;;;;;;;;;;;;;;;;;
2023/07/07 16:05:00;;;;;;;5.72;4.60;;;24.80;93.60;;;;;;4973941;28;20046;-90
2023/07/07 16:07:25;;;;;;;5.00;4.53;;;24.80;94.00;;;;;;4956365;28;20031;-89
2023/07/07 16:09:52;;;;;;;5.15;4.65;;;24.70;94.20;;;;;;4950537;28;20045;-88
2023/07/07 16:12:19;;;;;;;5.30;4.80;;;24.70;94.10;;;;;;4959964;28;20032;-85
2023/07/07 16:14:45;;;;;;;5.32;4.82;;;24.70;94.30;;;;;;4968629;28;20035;-88
2023/07/07 16:17:17;;;;;;;5.90;5.25;;;24.70;94.50;;;;;;4956420;28;20039;-87
2023/07/07 16:19:44;;;;;;;5.40;4.90;;;24.70;94.40;;;;;;4960275;28;20030;-89
2023/07/07 16:22:12;;;;;;;5.50;5.00;;;24.70;94.70;;;;;;4954986;28;20035;-85
2023/07/07 16:24:38;;;;;;;5.30;4.78;;;24.70;94.80;;;;;;4961792;28;20027;-89
2023/07/07 16:27:11;;;;;;;5.18;4.68;;;24.60;94.80;;;;;;4970244;28;20487;-87
2023/07/07 16:29:41;;;;;;;4.85;4.30;;;24.60;95.00;;;;;;4955765;28;20031;-84
2023/07/07 16:32:09;;;;;;;5.38;4.88;;;24.60;95.00;;;;;;4975411;28;20050;-85
2023/07/07 16:34:34;;;;;;;5.57;4.95;;;24.60;95.00;;;;;;4958176;28;20030;-88
2023/07/07 16:37:00;;;;;;;5.15;4.65;;;24.60;94.90;;;;;;4956454;28;20375;-88
2023/07/07 16:39:26;;;;;;;5.65;4.72;;;24.60;95.10;;;;;;4960145;28;20113;-89
2023/07/07 16:41:51;;;;;;;5.15;4.65;;;24.60;94.70;;;;;;4974603;28;20038;-88
2023/07/07 16:44:18;;;;;;;4.97;4.53;;;24.50;94.60;;;;;;4968461;28;20062;-88
2023/07/07 16:46:45;;;;;;;5.53;4.97;;;24.50;94.90;;;;;;4967248;28;20054;-89
2023/07/07 16:49:15;;;;;;;5.18;4.68;;;24.50;94.80;;;;;;4971248;28;20406;-87
2023/07/07 16:54:17;;;;;;;5.35;4.85;;;24.60;94.90;;;;;;5011446;28;20046;-81
2023/07/07 16:56:43;;;;;;;5.35;4.82;;;24.60;95.10;;;;;;5007967;28;20540;-80
2023/07/07 16:59:15;;;;;;;6.32;5.72;;;24.60;95.10;;;;;;5007731;28;20030;-84
2023/07/07 17:01:41;;;;;;;5.85;4.78;;;24.60;95.00;;;;;;5027791;28;20045;-82
2023/07/07 17:04:06;;;;;;;6.40;5.80;;;24.60;95.30;;;;;;5013465;28;20026;-82
2023/07/07 17:06:34;;;;;;;6.28;5.60;;;24.60;95.40;;;;;;5010762;28;20076;-82
2023/07/07 17:09:03;;;;;;;5.90;5.35;;;24.60;95.40;;;;;;5018764;28;20040;-85
2023/07/07 17:11:31;;;;;;;6.25;5.65;;;24.60;95.40;;;;;;5017478;28;20030;-82
2023/07/07 17:13:57;;;;;;;6.47;5.88;;;24.60;95.40;;;;;;5000709;28;20034;-82
2023/07/07 17:16:25;;;;;;;6.07;5.47;;;24.60;95.60;;;;;;5005813;28;20034;-81
2023/07/07 17:18:56;;;;;;;6.20;5.60;;;24.60;95.70;;;;;;5008352;28;20535;-81
2023/07/07 17:21:22;;;;;;;;;;;24.50;95.80;;;;;;5006050;28;20148;-81
2023/07/07 17:23:49;;;;;;;5.50;4.97;;;24.50;95.40;;;;;;5018022;28;19913;-82
2023/07/07 17:26:19;;;;;;;6.35;5.75;;;24.50;96.00;;;;;;5004649;28;20397;-83
2023/07/07 17:28:45;;;;;;;6.40;5.78;;;24.50;96.40;;;;;;5004807;28;20108;-82
2023/07/07 17:31:16;;;;;;;6.25;5.65;;;24.50;96.80;;;;;;5018142;28;20426;-84
2023/07/07 17:33:42;;;;;;;5.82;5.22;;;24.40;96.80;;;;;;5003783;28;20026;-83
2023/07/07 17:36:23;;;;;;;6.35;5.75;;;24.40;97.10;;;;;;5006047;28;20750;-82
2023/07/07 17:38:49;;;;;;;6.47;5.88;;;24.40;97.10;;;;;;5005891;28;20622;-82
2023/07/07 17:41:16;;;;;;;7.10;6.22;;;24.40;97.50;;;;;;5025418;28;20030;-82
2023/07/07 17:43:42;;;;;;;6.20;5.60;;;24.40;97.50;;;;;;5011543;28;20052;-83
2023/07/07 17:46:30;;;;;;;7.13;6.43;;;24.40;97.60;;;;;;5006940;28;20026;-81
2023/07/07 17:49:00;;;;;;;6.55;5.72;;;24.40;97.30;;;;;;5005646;28;20393;-82
2023/07/07 17:51:28;;;;;;;7.13;6.43;;;24.30;97.80;;;;;;5009261;28;20092;-83
2023/07/07 17:53:54;;;;;;;6.80;6.10;;;24.40;97.90;;;;;;5012828;28;20515;-81
2023/07/07 17:56:25;;;;;;;7.03;6.32;;;24.30;98.10;;;;;;5005694;28;20034;-81
2023/07/07 17:58:51;;;;;;;;;;;24.30;98.30;;;;;;5004545;28;20033;-82
2023/07/07 18:01:18;;;;;;;6.50;5.90;;;24.30;97.50;;;;;;5029146;28;19909;-82
2023/07/07 18:03:44;;;;;;;7.47;6.72;;;24.30;98.30;;;;;;5007173;28;20036;-82
2023/07/07 18:06:18;;;;;;;7.68;6.95;;;24.40;98.50;;;;;;5021610;28;20077;-82
2023/07/07 18:08:45;;;;;;;7.40;6.70;;;24.30;98.30;;;;;;5009121;28;20014;-83
2023/07/07 18:11:15;;;;;;;6.97;6.28;;;24.40;98.40;;;;;;5022984;28;20532;-83
2023/07/07 18:13:40;;;;;;;7.15;6.45;;;24.40;98.40;;;;;;5004557;28;20030;-82
2023/07/07 18:16:30;;;;;;;7.00;6.28;;;24.40;97.90;;;;;;4996132;28;20033;-83
2023/07/07 18:18:56;;;;;;;6.63;5.70;;;24.40;97.60;;;;;;5015930;28;20144;-82
2023/07/07 18:21:24;;;;;;;5.55;5.05;;;24.40;97.70;;;;;;5014594;28;20030;-83
2023/07/07 18:23:52;;;;;;;8.85;6.60;;;24.40;97.20;;;;;;5018680;28;20040;-82
2023/07/07 18:26:21;;;;;;;8.63;6.22;;;24.40;97.40;;;;;;5001881;28;20044;-81
2023/07/07 18:28:47;;;;;;;7.25;6.45;;;24.50;97.50;;;;;;5002688;28;20052;-82
2023/07/07 18:31:25;;;;;;;8.27;6.22;;;24.50;97.60;;;;;;5006962;28;20109;-81
2023/07/07 18:33:51;;;;;;;5.88;5.28;;;24.50;97.40;;;;;;5008340;28;20388;-81
2023/07/07 18:36:17;;;;;;;5.15;4.65;;;24.40;97.20;;;;;;5001331;28;20053;-83
2023/07/07 18:38:43;;;;;;;5.07;4.45;;;24.30;97.10;;;;;;5004344;28;20754;-82
2023/07/07 18:41:14;;;;;;;5.05;4.55;;;24.30;96.60;;;;;;4999933;28;20045;-82
2023/07/07 18:43:40;;;;;;;5.88;5.05;;;24.20;96.50;;;;;;5003354;28;20539;-82
2023/07/07 18:46:15;;;;;;;5.65;5.00;;;24.10;96.80;;;;;;4998732;28;20026;-82
2023/07/07 18:48:42;;;;;;;5.97;4.68;;;24.00;96.80;;;;;;4990414;28;20033;-81
2023/07/07 18:51:13;;;;;;;5.28;4.78;;;24.00;97.00;;;;;;5001365;28;20066;-82
2023/07/07 18:53:39;;;;;;;5.57;5.07;;;24.00;96.90;;;;;;5016659;28;20073;-83
2023/07/07 18:56:16;;;;;;;5.70;5.10;;;24.00;96.70;;;;;;5001350;28;20026;-83
2023/07/07 18:58:46;;;;;;;6.55;5.70;;;24.00;96.50;;;;;;4997506;28;20033;-82
2023/07/07 19:01:17;;;;;;;8.70;6.88;;;24.00;96.10;;;;;;5000392;28;20053;-81
2023/07/07 19:03:43;;;;;;;11.80;8.55;;;23.90;95.30;;;;;;5018854;28;20113;-83
2023/07/07 19:06:25;;;;;;;30.80;18.83;;;23.90;95.20;;;;;;4997523;28;20032;-82
2023/07/07 19:08:51;;;;;;;32.25;18.45;;;23.80;94.30;;;;;;5000304;28;20093;-83
2023/07/07 19:11:17;;;;;;;20.05;12.60;;;23.80;93.90;;;;;;4999185;28;20492;-83
2023/07/07 19:13:43;;;;;;;13.63;8.55;;;23.70;93.60;;;;;;5024916;28;20022;-83
2023/07/07 19:16:28;;;;;;;6.50;5.35;;;23.70;93.50;;;;;;5006396;28;20054;-84
2023/07/07 19:18:55;;;;;;;6.85;5.07;;;23.60;93.20;;;;;;5007799;28;20024;-83
2023/07/07 19:21:30;;;;;;;5.45;4.78;;;23.50;93.30;;;;;;5008656;28;20030;-83
2023/07/07 19:23:57;;;;;;;4.75;4.00;;;23.40;93.30;;;;;;5021754;28;20036;-83
2023/07/07 19:26:36;;;;;;;6.15;5.20;;;23.40;93.60;;;;;;5006778;28;20021;-81
2023/07/07 19:29:04;;;;;;;6.32;5.28;;;23.30;94.10;;;;;;4998752;28;20401;-84
2023/07/07 19:31:31;;;;;;;6.00;4.57;;;23.30;94.20;;;;;;5015444;28;20033;-84
2023/07/07 19:33:57;;;;;;;5.53;4.50;;;23.20;94.40;;;;;;5020107;28;20026;-84
2023/07/07 19:36:27;;;;;;;5.05;4.55;;;23.20;94.40;;;;;;5013818;28;20087;-83
2023/07/07 19:38:57;;;;;;;5.20;4.30;;;23.20;94.80;;;;;;5004034;28;20081;-85
2023/07/07 19:41:26;;;;;;;5.20;4.70;;;23.10;94.80;;;;;;5018029;28;20146;-83
2023/07/07 19:43:52;;;;;;;6.15;4.45;;;23.00;95.10;;;;;;5007202;28;20034;-89
2023/07/07 19:46:19;;;;;;;5.93;5.05;;;23.00;95.60;;;;;;5003378;28;20044;-85
2023/07/07 19:48:46;;;;;;;5.53;4.93;;;22.90;95.90;;;;;;5022277;28;20083;-85
2023/07/07 19:51:21;;;;;;;5.22;4.72;;;22.80;96.20;;;;;;5009612;28;20029;-83
2023/07/07 19:53:47;;;;;;;4.93;4.53;;;22.80;96.30;;;;;;5024276;28;20057;-83
2023/07/07 19:56:17;;;;;;;4.95;4.45;;;22.70;96.90;;;;;;5017434;28;21237;-83
2023/07/07 19:58:44;;;;;;;5.38;4.88;;;22.70;96.80;;;;;;5023594;28;20045;-84
2023/07/07 20:01:15;;;;;;;5.50;5.00;;;22.70;97.00;;;;;;5017627;28;20072;-84
2023/07/07 20:03:42;;;;;;;5.68;5.07;;;22.70;97.00;;;;;;5018195;28;20022;-85
2023/07/07 20:06:14;;;;;;;4.82;4.28;;;22.60;97.10;;;;;;5002536;28;20115;-82
2023/07/07 20:08:41;;;;;;;5.60;4.97;;;22.60;97.20;;;;;;5001141;28;20033;-86
2023/07/07 20:11:26;;;;;;;5.40;4.90;;;22.60;97.30;;;;;;4996668;28;20029;-85
2023/07/07 20:13:54;;;;;;;5.70;4.82;;;22.60;96.90;;;;;;5004594;28;20027;-83
2023/07/07 20:16:31;;;;;;;5.20;4.70;;;22.50;97.50;;;;;;5029231;28;20032;-86
2023/07/07 20:19:05;;;;;;;5.07;4.57;;;22.50;97.20;;;;;;5006105;28;20034;-86
2023/07/07 20:21:30;;;;;;;5.22;4.72;;;22.50;97.50;;;;;;5003826;28;20065;-86
2023/07/07 20:23:57;;;;;;;5.07;4.57;;;22.50;97.50;;;;;;5004353;28;20031;-86
2023/07/07 20:26:25;;;;;;;5.40;4.90;;;22.50;97.30;;;;;;5012590;28;20482;-86
2023/07/07 20:28:56;;;;;;;5.13;4.63;;;22.50;97.20;;;;;;5006348;28;20034;-87
2023/07/07 20:31:23;;;;;;;5.63;4.57;;;22.50;97.00;;;;;;5017218;28;20076;-85
2023/07/07 20:33:50;;;;;;;4.95;4.43;;;22.40;97.00;;;;;;5007357;28;20026;-86
2023/07/07 20:36:20;;;;;;;4.78;4.18;;;22.50;96.90;;;;;;5004968;28;20124;-86
2023/07/07 20:38:47;;;;;;;4.75;3.75;;;22.50;96.50;;;;;;5007622;28;20026;-86
2023/07/07 20:41:18;;;;;;;4.60;4.18;;;22.40;96.40;;;;;;5007571;28;20172;-86
2023/07/07 20:43:44;;;;;;;;;;;22.40;96.20;;;;;;5009441;28;20092;-86
2023/07/07 20:46:26;;;;;;;4.07;3.67;;;22.40;95.80;;;;;;5008718;28;19917;-86
2023/07/07 20:48:52;;;;;;;4.30;3.90;;;22.30;96.30;;;;;;5007957;28;20056;-85
2023/07/07 20:51:23;;;;;;;4.68;3.72;;;22.30;96.90;;;;;;5008180;28;20444;-86
2023/07/07 20:53:49;;;;;;;4.60;4.10;;;22.30;96.90;;;;;;5010520;28;20091;-86
2023/07/07 20:56:17;;;;;;;3.95;3.55;;;22.30;97.20;;;;;;5012664;28;20109;-85
2023/07/07 20:58:43;;;;;;;4.07;3.67;;;22.20;97.20;;;;;;5010723;28;20053;-85
2023/07/07 21:01:11;;;;;;;4.63;4.18;;;22.20;97.20;;;;;;5010088;28;20022;-85
2023/07/07 21:03:37;;;;;;;4.60;4.20;;;22.20;97.30;;;;;;5010318;28;20022;-85
2023/07/07 21:06:04;;;;;;;4.75;4.28;;;22.20;97.50;;;;;;5010329;28;20080;-85
2023/07/07 21:08:29;;;;;;;5.18;4.20;;;22.20;97.60;;;;;;5010377;28;20032;-85
2023/07/07 21:10:55;;;;;;;5.55;4.63;;;22.10;97.90;;;;;;5015133;28;20393;-85
2023/07/07 21:13:24;;;;;;;6.13;4.82;;;22.20;98.20;;;;;;5014010;28;20030;-85
2023/07/07 21:15:51;;;;;;;4.85;4.35;;;22.20;98.50;;;;;;5014370;28;20030;-85
2023/07/07 21:18:17;;;;;;;5.47;4.80;;;22.20;98.70;;;;;;5013776;28;20025;-85
2023/07/07 21:20:45;;;;;;;6.07;5.15;;;22.20;98.90;;;;;;5015155;28;20108;-85